Time;durP1;ratioP1;P1;durP2;ratioP2;P2;SDS_P1;SDS_P2;PMS_P1;PMS_P2;Temp;Humidity;BMP_temperature;BMP_pressure;BME280_temperature;BME280_humidity;BME280_pressure;Samples;Min_cycle;Max_cycle;Signal;HPM_P1;HPM_P2
2022/12/09 00:00:38;;;;;;;16.42;8.73;;;2.50;99.90;;;;;;4901407;29;20084;-64
2022/12/09 00:03:04;;;;;;;17.40;8.97;;;2.50;99.90;;;;;;4901967;29;20037;-63
2022/12/09 00:05:29;;;;;;;18.63;9.83;;;2.50;99.90;;;;;;4901353;29;20063;-64
2022/12/09 00:07:55;;;;;;;16.40;9.50;;;2.40;99.90;;;;;;4901474;29;20040;-64
2022/12/09 00:10:20;;;;;;;15.73;9.40;;;2.40;99.90;;;;;;4900882;29;20150;-65
2022/12/09 00:12:46;;;;;;;17.10;9.30;;;2.30;99.90;;;;;;4900595;29;20123;-64
2022/12/09 00:15:11;;;;;;;16.20;8.67;;;2.30;99.90;;;;;;4901086;29;20028;-63
2022/12/09 00:17:37;;;;;;;17.80;9.70;;;2.20;99.90;;;;;;4899979;29;20027;-63
2022/12/09 00:20:03;;;;;;;16.67;9.47;;;2.30;99.90;;;;;;4900141;29;20394;-64
2022/12/09 00:22:28;;;;;;;19.35;9.75;;;2.40;99.90;;;;;;4899848;29;20095;-64
2022/12/09 00:24:54;;;;;;;16.33;9.60;;;2.30;99.90;;;;;;4900019;29;20036;-64
2022/12/09 00:27:19;;;;;;;18.87;9.93;;;2.30;99.90;;;;;;4900152;29;20036;-65
2022/12/09 00:29:45;;;;;;;17.90;9.80;;;2.20;99.90;;;;;;4898951;29;20450;-63
2022/12/09 00:32:10;;;;;;;18.10;9.53;;;2.20;99.90;;;;;;4900145;29;20029;-64
2022/12/09 00:34:36;;;;;;;19.60;10.33;;;2.10;99.90;;;;;;4900121;29;20037;-64
2022/12/09 00:37:01;;;;;;;16.20;9.63;;;2.00;99.90;;;;;;4900083;29;20033;-63
2022/12/09 00:39:27;;;;;;;16.60;9.67;;;2.00;99.90;;;;;;4899874;29;20032;-63
2022/12/09 00:41:52;;;;;;;18.70;9.13;;;1.90;99.90;;;;;;4900044;29;20032;-65
2022/12/09 00:44:18;;;;;;;18.67;9.50;;;1.90;99.90;;;;;;4899514;29;20036;-63
2022/12/09 00:46:44;;;;;;;16.13;8.88;;;2.00;99.90;;;;;;4899453;29;20028;-64
2022/12/09 00:49:10;;;;;;;17.30;9.03;;;2.00;99.90;;;;;;4899636;29;20032;-64
2022/12/09 00:51:35;;;;;;;16.23;9.50;;;2.00;99.90;;;;;;4901249;29;20036;-65
2022/12/09 00:54:01;;;;;;;16.00;9.37;;;2.00;99.90;;;;;;4900583;29;20116;-64
2022/12/09 00:56:28;;;;;;;17.00;9.32;;;2.10;99.90;;;;;;4899374;29;20028;-63
2022/12/09 00:58:55;;;;;;;16.52;9.50;;;2.00;99.90;;;;;;4899220;29;20037;-64
2022/12/09 01:01:21;;;;;;;17.45;8.80;;;2.00;99.90;;;;;;4898795;29;20033;-64
2022/12/09 01:03:46;;;;;;;15.70;8.23;;;2.00;99.90;;;;;;4898041;29;20390;-64
2022/12/09 01:06:18;;;;;;;15.40;8.77;;;2.00;99.90;;;;;;4900352;29;20378;-64
2022/12/09 01:08:44;;;;;;;16.92;10.02;;;1.90;99.90;;;;;;4899552;29;20112;-64
2022/12/09 01:11:12;;;;;;;18.83;9.48;;;1.90;99.90;;;;;;4899679;29;20060;-63
2022/12/09 01:13:38;;;;;;;17.27;9.18;;;1.90;99.90;;;;;;4901936;29;20127;-64
2022/12/09 01:16:03;;;;;;;17.13;9.13;;;1.90;99.90;;;;;;4901936;29;20071;-64
2022/12/09 01:18:29;;;;;;;18.02;10.00;;;1.80;99.90;;;;;;4901331;29;20068;-65
2022/12/09 01:20:58;;;;;;;16.53;9.07;;;1.70;99.90;;;;;;4899773;29;20111;-64
2022/12/09 01:23:24;;;;;;;19.67;10.00;;;1.60;99.90;;;;;;4898966;29;20029;-64
2022/12/09 01:25:50;;;;;;;15.68;9.77;;;1.70;99.90;;;;;;4898963;29;20028;-64
2022/12/09 01:28:15;;;;;;;14.73;9.40;;;1.70;99.90;;;;;;4899036;29;20037;-64
2022/12/09 01:30:41;;;;;;;13.77;8.63;;;1.70;99.90;;;;;;4897657;29;20025;-64
2022/12/09 01:33:06;;;;;;;17.53;9.57;;;1.70;99.90;;;;;;4899011;29;20036;-65
2022/12/09 01:35:32;;;;;;;16.07;8.70;;;1.70;99.90;;;;;;4898868;29;20036;-64
2022/12/09 01:37:57;;;;;;;15.87;8.37;;;1.60;99.90;;;;;;4900159;29;20498;-64
2022/12/09 01:40:23;;;;;;;14.13;8.40;;;1.50;99.90;;;;;;4900187;29;20509;-64
2022/12/09 01:42:50;;;;;;;16.57;9.37;;;1.60;99.90;;;;;;4899486;29;20032;-65
2022/12/09 01:45:22;;;;;;;17.02;8.98;;;1.70;99.90;;;;;;4898754;29;20028;-65
2022/12/09 01:47:51;;;;;;;18.33;8.43;;;1.70;99.90;;;;;;4899031;29;20024;-64
2022/12/09 01:50:17;;;;;;;14.13;7.95;;;1.70;99.90;;;;;;4899661;29;20139;-61
2022/12/09 01:52:44;;;;;;;12.43;7.05;;;1.60;99.90;;;;;;4897428;29;20025;-64
2022/12/09 01:55:10;;;;;;;13.50;7.70;;;1.50;99.90;;;;;;4898522;29;20032;-65
2022/12/09 01:57:36;;;;;;;14.75;7.13;;;1.50;99.90;;;;;;4898531;29;20103;-63
2022/12/09 02:00:03;;;;;;;12.88;7.60;;;1.40;99.90;;;;;;4898530;29;20120;-64
2022/12/09 02:02:29;;;;;;;;;;;1.40;99.90;;;;;;4898930;29;20025;-65
2022/12/09 02:04:55;;;;;;;14.95;7.78;;;1.30;99.90;;;;;;4898247;29;19912;-64
2022/12/09 02:07:20;;;;;;;13.43;6.97;;;1.30;99.90;;;;;;4898868;29;20036;-64
2022/12/09 02:09:51;;;;;;;13.67;6.80;;;1.20;99.90;;;;;;4899179;29;20029;-65
2022/12/09 02:12:36;;;;;;;12.93;6.68;;;1.10;99.90;;;;;;4899063;29;20490;-64
2022/12/09 02:15:11;;;;;;;15.70;6.95;;;1.10;99.90;;;;;;4899044;29;20032;-64
2022/12/09 02:17:51;;;;;;;14.32;6.38;;;1.10;99.90;;;;;;4898337;29;20024;-65
2022/12/09 02:20:28;;;;;;;14.32;6.47;;;1.10;99.90;;;;;;4898362;29;20040;-65
2022/12/09 02:23:10;;;;;;;11.70;6.53;;;1.00;99.90;;;;;;4896629;29;20039;-63
2022/12/09 02:25:44;;;;;;;13.77;6.80;;;1.00;99.90;;;;;;4898357;29;20028;-64
2022/12/09 02:28:40;;;;;;;12.00;6.65;;;0.90;99.90;;;;;;4896791;29;20025;-64
2022/12/09 02:31:31;;;;;;;12.10;5.72;;;0.80;99.90;;;;;;4897828;29;20103;-64
2022/12/09 02:34:11;;;;;;;10.70;5.63;;;0.80;99.90;;;;;;4898254;29;20092;-64
2022/12/09 02:36:53;;;;;;;9.15;5.20;;;0.80;99.90;;;;;;4898235;29;20036;-64
2022/12/09 02:39:29;;;;;;;10.32;5.50;;;0.70;99.90;;;;;;4897926;29;20517;-64
2022/12/09 02:41:57;;;;;;;10.30;5.25;;;0.70;99.90;;;;;;4898216;29;20032;-64
2022/12/09 02:44:24;;;;;;;10.05;5.40;;;0.70;99.90;;;;;;4898701;29;20041;-64
2022/12/09 02:46:52;;;;;;;8.55;5.50;;;0.60;99.90;;;;;;4897655;29;20029;-64
2022/12/09 02:49:20;;;;;;;9.20;5.75;;;0.60;99.90;;;;;;4897993;29;20028;-64
2022/12/09 02:51:48;;;;;;;9.63;5.30;;;0.60;99.90;;;;;;4897972;29;20100;-64
2022/12/09 02:54:16;;;;;;;7.70;4.93;;;0.60;99.90;;;;;;4898248;29;20052;-64
2022/12/09 02:56:50;;;;;;;10.20;5.47;;;0.50;99.90;;;;;;4896789;29;20032;-64
2022/12/09 02:59:15;;;;;;;10.90;4.97;;;0.50;99.90;;;;;;4898073;29;20471;-64
2022/12/09 03:02:14;;;;;;;10.47;5.90;;;0.50;99.90;;;;;;4897678;29;20052;-64
2022/12/09 03:04:43;;;;;;;10.38;5.38;;;0.60;99.90;;;;;;4897922;29;20057;-64
2022/12/09 03:07:46;;;;;;;11.95;6.03;;;0.60;99.90;;;;;;4896483;29;20036;-64
2022/12/09 03:10:25;;;;;;;11.88;5.97;;;0.50;99.90;;;;;;4868783;29;20040;-64
2022/12/09 03:13:02;;;;;;;9.70;5.82;;;0.50;99.90;;;;;;4899252;29;20431;-63
2022/12/09 03:15:33;;;;;;;11.75;5.43;;;0.40;99.90;;;;;;4900209;29;20059;-65
2022/12/09 03:18:02;;;;;;;10.00;5.72;;;0.50;99.90;;;;;;4904102;29;20467;-64
2022/12/09 03:20:31;;;;;;;9.55;5.28;;;0.50;99.90;;;;;;4901484;29;20032;-64
2022/12/09 03:22:59;;;;;;;9.90;5.35;;;0.60;99.90;;;;;;4901096;29;20482;-65
2022/12/09 03:25:37;;;;;;;9.00;5.57;;;0.70;99.90;;;;;;4901253;29;20033;-65
2022/12/09 03:28:07;;;;;;;8.85;5.20;;;0.60;99.90;;;;;;4900875;29;20084;-65
2022/12/09 03:30:38;;;;;;;10.35;4.93;;;0.70;99.90;;;;;;4899707;29;20483;-64
2022/12/09 03:33:04;;;;;;;8.80;4.55;;;0.70;99.90;;;;;;4900464;29;20501;-64
2022/12/09 03:35:35;;;;;;;9.07;4.70;;;0.70;99.90;;;;;;4900880;29;20033;-64
2022/12/09 03:38:05;;;;;;;8.43;5.07;;;0.60;99.90;;;;;;4903415;29;20041;-64
2022/12/09 03:40:32;;;;;;;8.50;5.15;;;0.70;99.90;;;;;;4901171;29;20036;-62
2022/12/09 03:43:08;;;;;;;9.45;5.10;;;0.70;99.90;;;;;;4900657;29;20060;-64
2022/12/09 03:45:34;;;;;;;9.23;5.82;;;1.00;99.90;;;;;;4901075;29;20021;-63
2022/12/09 03:48:00;;;;;;;11.97;6.93;;;1.00;99.90;;;;;;4900578;29;20625;-64
2022/12/09 03:50:28;;;;;;;;;;;1.00;99.90;;;;;;4901410;29;20052;-64
2022/12/09 03:53:03;;;;;;;12.80;6.20;;;1.00;99.90;;;;;;4901016;29;20357;-64
2022/12/09 03:55:46;;;;;;;12.18;7.15;;;0.90;99.90;;;;;;4902516;29;20439;-64
2022/12/09 03:58:14;;;;;;;11.82;6.32;;;0.80;99.90;;;;;;4900996;29;20198;-63
2022/12/09 04:00:40;;;;;;;13.82;7.07;;;0.80;99.90;;;;;;4901110;29;20052;-64
2022/12/09 04:03:06;;;;;;;15.30;7.05;;;0.70;99.90;;;;;;4900122;29;20124;-64
2022/12/09 04:05:32;;;;;;;16.90;7.93;;;0.60;99.90;;;;;;4900245;29;20509;-63
2022/12/09 04:07:57;;;;;;;13.40;7.63;;;0.50;99.90;;;;;;4900676;29;20206;-65
2022/12/09 04:10:23;;;;;;;13.40;7.47;;;0.50;99.90;;;;;;4900228;29;20031;-63
2022/12/09 04:12:48;;;;;;;12.53;6.90;;;0.50;99.90;;;;;;4900448;29;20691;-65
2022/12/09 04:15:14;;;;;;;12.07;6.87;;;0.50;99.90;;;;;;4900249;29;20442;-64
2022/12/09 04:17:39;;;;;;;12.77;7.13;;;0.50;99.90;;;;;;4900028;29;20055;-64
2022/12/09 04:20:05;;;;;;;13.07;6.67;;;0.50;99.90;;;;;;4900380;29;20467;-63
2022/12/09 04:22:31;;;;;;;12.63;6.63;;;0.50;99.90;;;;;;4899986;29;20032;-64
2022/12/09 04:24:56;;;;;;;12.93;6.73;;;0.60;99.90;;;;;;4900067;29;20087;-64
2022/12/09 04:27:22;;;;;;;12.70;6.80;;;0.60;99.90;;;;;;4900111;29;20091;-64
2022/12/09 04:29:48;;;;;;;10.00;6.07;;;0.70;99.90;;;;;;4901237;29;20035;-64
2022/12/09 04:32:13;;;;;;;9.67;6.23;;;0.60;99.90;;;;;;4899369;29;20025;-63
2022/12/09 04:34:39;;;;;;;11.37;5.90;;;0.60;99.90;;;;;;4899998;29;20147;-63
2022/12/09 04:37:04;;;;;;;11.33;5.67;;;0.70;99.90;;;;;;4900073;29;20116;-64
2022/12/09 04:39:30;;;;;;;10.33;5.77;;;0.60;99.90;;;;;;4899650;29;20028;-64
2022/12/09 04:41:55;;;;;;;13.47;5.77;;;0.70;99.90;;;;;;4899499;29;20028;-64
2022/12/09 04:44:21;;;;;;;11.47;6.17;;;0.70;99.90;;;;;;4900637;29;20124;-64
2022/12/09 04:46:46;;;;;;;13.77;7.47;;;0.60;99.90;;;;;;4900291;29;20032;-63
2022/12/09 04:49:12;;;;;;;16.60;7.90;;;0.60;99.90;;;;;;4900986;29;20021;-64
2022/12/09 04:51:38;;;;;;;19.87;8.93;;;0.50;99.90;;;;;;4901247;29;20063;-65
2022/12/09 04:54:03;;;;;;;13.17;7.20;;;0.40;99.90;;;;;;4903247;29;20024;-64
2022/12/09 04:56:29;;;;;;;14.00;7.77;;;0.30;99.90;;;;;;4905042;29;20040;-63
2022/12/09 04:58:54;;;;;;;12.00;7.20;;;0.30;99.90;;;;;;4903034;29;20037;-65
2022/12/09 05:01:22;;;;;;;16.40;8.40;;;0.20;99.90;;;;;;4902466;29;20037;-64
2022/12/09 05:03:52;;;;;;;13.90;7.97;;;0.20;99.90;;;;;;4899993;29;20504;-63
2022/12/09 05:06:19;;;;;;;14.90;8.85;;;0.10;99.90;;;;;;4899349;29;20028;-62
2022/12/09 05:08:45;;;;;;;13.68;7.53;;;0.10;99.90;;;;;;4899348;29;20164;-63
2022/12/09 05:11:12;;;;;;;15.60;8.40;;;0.00;99.90;;;;;;4899388;29;20064;-64
2022/12/09 05:13:37;;;;;;;17.38;9.05;;;0.00;99.90;;;;;;4898895;29;20047;-64
2022/12/09 05:16:09;;;;;;;14.17;8.20;;;-0.10;99.90;;;;;;4897986;29;20402;-63
2022/12/09 05:18:35;;;;;;;18.52;8.20;;;-0.10;99.90;;;;;;4897954;29;20028;-63
2022/12/09 05:21:06;;;;;;;15.65;8.98;;;-0.10;99.90;;;;;;4899190;29;20108;-63
2022/12/09 05:23:32;;;;;;;16.08;8.18;;;-0.10;99.90;;;;;;4898690;29;20475;-64
2022/12/09 05:26:01;;;;;;;18.52;8.38;;;-0.10;99.90;;;;;;4898823;29;20043;-63
2022/12/09 05:28:28;;;;;;;17.35;9.43;;;-0.10;99.90;;;;;;4899026;29;20025;-63
2022/12/09 05:30:53;;;;;;;17.80;8.90;;;-0.10;99.90;;;;;;4898672;29;20033;-62
2022/12/09 05:33:18;;;;;;;18.40;10.07;;;-0.20;99.90;;;;;;4898511;29;20558;-63
2022/12/09 05:35:44;;;;;;;18.70;9.77;;;-0.20;99.90;;;;;;4898785;29;20032;-64
2022/12/09 05:38:09;;;;;;;15.60;9.10;;;-0.20;99.90;;;;;;4898568;29;20032;-65
2022/12/09 05:40:35;;;;;;;17.13;9.77;;;-0.20;99.90;;;;;;4898602;29;20055;-65
2022/12/09 05:43:01;;;;;;;16.90;9.30;;;-0.20;99.90;;;;;;4898411;29;20367;-64
2022/12/09 05:45:26;;;;;;;18.67;10.30;;;-0.20;99.90;;;;;;4898935;29;20041;-67
2022/12/09 05:47:52;;;;;;;19.03;10.17;;;-0.30;99.90;;;;;;4898303;29;20436;-66
2022/12/09 05:50:17;;;;;;;20.53;9.73;;;-0.20;99.90;;;;;;4898825;29;20483;-66
2022/12/09 05:52:43;;;;;;;21.57;11.07;;;-0.20;99.90;;;;;;4897268;29;20561;-66
2022/12/09 05:55:09;;;;;;;18.87;9.90;;;-0.30;99.90;;;;;;4898716;29;20044;-66
2022/12/09 05:57:35;;;;;;;21.48;9.93;;;-0.30;99.90;;;;;;4897519;29;20029;-67
2022/12/09 06:00:01;;;;;;;17.02;10.15;;;-0.40;99.90;;;;;;4898589;29;20040;-66
2022/12/09 06:02:26;;;;;;;18.15;9.90;;;-0.40;99.90;;;;;;4898160;29;20080;-67
2022/12/09 06:04:52;;;;;;;19.17;10.13;;;-0.50;99.90;;;;;;4898482;29;20072;-65
2022/12/09 06:07:17;;;;;;;20.43;10.60;;;-0.40;99.90;;;;;;4898777;29;20025;-66
2022/12/09 06:09:43;;;;;;;18.30;10.10;;;-0.40;99.90;;;;;;4898830;29;20109;-66
2022/12/09 06:12:09;;;;;;;20.93;10.63;;;-0.40;99.90;;;;;;4897327;29;20044;-66
2022/12/09 06:14:35;;;;;;;21.45;9.75;;;-0.30;99.90;;;;;;4898248;29;20036;-67
2022/12/09 06:17:01;;;;;;;17.93;10.17;;;-0.30;99.90;;;;;;4898146;29;20033;-69
2022/12/09 06:19:26;;;;;;;20.00;10.57;;;-0.30;99.90;;;;;;4893152;29;20029;-70
2022/12/09 06:21:52;;;;;;;20.77;9.93;;;-0.30;99.90;;;;;;4901380;29;20040;-70
2022/12/09 06:24:18;;;;;;;21.10;10.20;;;-0.30;99.90;;;;;;4902948;29;20063;-71
2022/12/09 06:26:44;;;;;;;22.27;10.07;;;-0.30;99.90;;;;;;4897256;29;20029;-69
2022/12/09 06:29:09;;;;;;;19.40;9.43;;;-0.30;99.90;;;;;;4897942;29;20149;-68
2022/12/09 06:31:35;;;;;;;20.70;10.00;;;-0.40;99.90;;;;;;4896991;29;20093;-67
2022/12/09 06:34:00;;;;;;;18.80;9.70;;;-0.30;99.90;;;;;;4896024;29;20037;-67
2022/12/09 06:36:28;;;;;;;17.63;10.17;;;-0.30;99.90;;;;;;4894965;29;20115;-67
2022/12/09 06:38:55;;;;;;;19.25;9.77;;;-0.30;99.90;;;;;;4914131;29;20424;-67
2022/12/09 06:41:21;;;;;;;20.75;9.95;;;-0.30;99.90;;;;;;4916824;29;20038;-67
2022/12/09 06:43:47;;;;;;;19.00;9.63;;;-0.30;99.90;;;;;;4915716;29;20032;-67
2022/12/09 06:46:23;;;;;;;27.67;10.98;;;-0.30;99.90;;;;;;4916630;29;20043;-67
2022/12/09 06:48:50;;;;;;;18.65;10.02;;;-0.30;99.90;;;;;;4916503;29;20055;-66
2022/12/09 06:51:16;;;;;;;18.27;9.48;;;-0.20;99.90;;;;;;4917874;29;20103;-67
2022/12/09 06:53:42;;;;;;;;;;;-0.20;99.90;;;;;;4920695;29;20506;-66
2022/12/09 06:56:10;;;;;;;18.90;9.57;;;-0.20;99.90;;;;;;4916460;29;19950;-66
2022/12/09 06:58:35;;;;;;;17.80;9.60;;;-0.20;99.90;;;;;;4901363;29;20479;-68
2022/12/09 07:01:14;;;;;;;19.38;9.65;;;-0.20;99.90;;;;;;4900170;29;20123;-66
2022/12/09 07:03:42;;;;;;;21.58;10.23;;;-0.30;99.90;;;;;;4901144;29;20050;-66
2022/12/09 07:06:18;;;;;;;18.63;10.27;;;-0.20;99.90;;;;;;4901645;29;20406;-67
2022/12/09 07:08:44;;;;;;;17.80;9.77;;;-0.10;99.90;;;;;;4901447;29;20020;-67
2022/12/09 07:11:09;;;;;;;24.00;10.13;;;-0.10;99.90;;;;;;4901282;29;20446;-67
2022/12/09 07:13:35;;;;;;;19.67;9.97;;;-0.10;99.90;;;;;;4901031;29;20045;-67
2022/12/09 07:16:00;;;;;;;20.60;10.47;;;-0.10;99.90;;;;;;4901962;29;20094;-66
2022/12/09 07:18:26;;;;;;;17.07;10.00;;;-0.20;99.90;;;;;;4900719;29;20402;-66
2022/12/09 07:20:51;;;;;;;21.50;10.67;;;-0.10;99.90;;;;;;4900938;29;20402;-67
2022/12/09 07:23:17;;;;;;;20.53;10.17;;;-0.10;99.90;;;;;;4900696;29;20471;-67
2022/12/09 07:25:42;;;;;;;22.07;11.03;;;-0.20;99.90;;;;;;4900787;29;20032;-66
2022/12/09 07:28:08;;;;;;;21.87;10.33;;;-0.20;99.90;;;;;;4900898;29;20048;-66
2022/12/09 07:30:36;;;;;;;22.07;10.27;;;-0.30;99.90;;;;;;4900514;29;20032;-66
2022/12/09 07:33:01;;;;;;;18.63;10.57;;;-0.20;99.90;;;;;;4900507;29;20028;-66
2022/12/09 07:35:27;;;;;;;20.33;11.10;;;-0.20;99.90;;;;;;4899650;29;20047;-64
2022/12/09 07:37:54;;;;;;;21.53;10.17;;;-0.20;99.90;;;;;;4901084;29;20107;-65
2022/12/09 07:40:20;;;;;;;16.08;9.95;;;-0.20;99.90;;;;;;4901188;29;20021;-65
2022/12/09 07:42:45;;;;;;;19.00;9.90;;;-0.20;99.90;;;;;;4903895;29;20482;-69
2022/12/09 07:45:11;;;;;;;21.52;11.00;;;-0.10;99.90;;;;;;4903999;29;20024;-71
2022/12/09 07:47:37;;;;;;;20.17;10.13;;;-0.10;99.90;;;;;;4903130;29;20032;-68
2022/12/09 07:50:02;;;;;;;18.87;9.97;;;0.00;99.90;;;;;;4895392;29;20039;-68
2022/12/09 07:52:28;;;;;;;23.33;10.33;;;0.00;99.90;;;;;;4909576;29;20040;-67
2022/12/09 07:54:54;;;;;;;18.07;10.00;;;0.00;99.90;;;;;;4893695;29;20036;-68
2022/12/09 07:57:19;;;;;;;21.55;10.32;;;0.00;99.90;;;;;;4906347;29;20043;-68
2022/12/09 07:59:45;;;;;;;18.70;9.33;;;0.10;99.90;;;;;;4900421;29;20036;-68
2022/12/09 08:02:10;;;;;;;17.13;9.93;;;0.10;99.90;;;;;;4899891;29;20040;-70
2022/12/09 08:04:36;;;;;;;18.80;9.77;;;0.10;99.90;;;;;;4900327;29;20032;-68
2022/12/09 08:07:01;;;;;;;21.40;10.30;;;0.10;99.90;;;;;;4881826;29;20044;-68
2022/12/09 08:09:27;;;;;;;21.03;10.60;;;0.10;99.90;;;;;;4881888;29;20056;-68
2022/12/09 08:11:52;;;;;;;17.87;9.80;;;0.10;99.90;;;;;;4881375;29;20510;-68
2022/12/09 08:14:18;;;;;;;20.07;10.30;;;0.10;99.90;;;;;;4899944;29;20040;-69
2022/12/09 08:16:43;;;;;;;17.67;9.27;;;0.10;99.90;;;;;;4900649;29;20558;-69
2022/12/09 08:19:09;;;;;;;16.97;9.67;;;0.20;99.90;;;;;;4899081;29;20036;-68
2022/12/09 08:21:35;;;;;;;16.45;8.82;;;0.20;99.90;;;;;;4900042;29;20521;-69
2022/12/09 08:24:04;;;;;;;18.23;9.83;;;0.20;99.90;;;;;;4898666;29;20440;-68
2022/12/09 08:26:30;;;;;;;17.95;9.75;;;0.30;99.90;;;;;;4900185;29;20481;-68
2022/12/09 08:28:56;;;;;;;;;;;0.30;99.90;;;;;;4900499;29;20033;-69
2022/12/09 08:31:23;;;;;;;18.65;9.65;;;0.50;99.90;;;;;;4892008;29;20016;-68
2022/12/09 08:33:49;;;;;;;18.40;10.40;;;0.50;99.90;;;;;;4880550;29;20033;-68
2022/12/09 08:36:17;;;;;;;21.55;9.98;;;0.60;99.90;;;;;;4898813;29;20044;-69
2022/12/09 08:38:44;;;;;;;18.98;10.18;;;0.50;99.90;;;;;;4892992;29;20505;-69
2022/12/09 08:41:13;;;;;;;18.65;9.63;;;0.50;99.90;;;;;;4898199;29;20033;-69
2022/12/09 08:43:40;;;;;;;15.93;9.35;;;0.60;99.90;;;;;;4899707;29;20028;-69
2022/12/09 08:46:06;;;;;;;17.77;9.60;;;0.80;99.90;;;;;;4899908;29;20096;-69
2022/12/09 08:48:35;;;;;;;18.27;9.70;;;0.80;99.90;;;;;;4893082;29;20048;-70
2022/12/09 08:51:00;;;;;;;20.42;9.95;;;0.90;99.90;;;;;;4880741;29;20265;-70
2022/12/09 08:53:26;;;;;;;21.37;10.60;;;0.90;99.90;;;;;;4881840;29;20035;-69
2022/12/09 08:55:51;;;;;;;20.93;10.63;;;1.00;99.90;;;;;;4882970;29;20029;-69
2022/12/09 08:58:17;;;;;;;19.50;10.90;;;1.10;99.90;;;;;;4900158;29;20033;-69
2022/12/09 09:00:42;;;;;;;17.57;9.93;;;1.20;99.90;;;;;;4899698;29;20032;-69
2022/12/09 09:03:08;;;;;;;21.53;10.77;;;1.10;99.90;;;;;;4899845;29;20037;-69
2022/12/09 09:05:33;;;;;;;18.33;10.23;;;1.10;99.90;;;;;;4909084;29;20067;-69
2022/12/09 09:07:59;;;;;;;18.03;10.20;;;1.10;99.90;;;;;;4880122;29;20048;-69
2022/12/09 09:10:25;;;;;;;19.97;11.03;;;1.20;99.90;;;;;;4880651;29;20506;-69
2022/12/09 09:12:50;;;;;;;18.60;9.97;;;1.30;99.90;;;;;;4880028;29;20100;-69
2022/12/09 09:15:16;;;;;;;17.90;11.00;;;1.40;99.90;;;;;;4878405;29;20509;-69
2022/12/09 09:17:41;;;;;;;17.03;9.67;;;1.50;99.90;;;;;;4879182;29;20036;-69
2022/12/09 09:20:07;;;;;;;19.73;10.70;;;1.50;99.90;;;;;;4894912;29;20352;-69
2022/12/09 09:22:33;;;;;;;19.45;10.57;;;1.60;99.90;;;;;;4879207;29;20069;-69
2022/12/09 09:24:59;;;;;;;20.25;11.63;;;1.70;99.90;;;;;;4880297;29;20037;-69
2022/12/09 09:27:24;;;;;;;19.77;10.10;;;1.80;99.90;;;;;;4893085;29;20585;-69
2022/12/09 09:29:50;;;;;;;17.20;9.97;;;1.80;99.90;;;;;;4898957;29;20056;-69
2022/12/09 09:32:15;;;;;;;19.20;11.43;;;1.80;99.90;;;;;;4897478;29;20478;-69
2022/12/09 09:34:41;;;;;;;19.50;12.17;;;1.90;99.90;;;;;;4898560;29;20371;-69
2022/12/09 09:37:07;;;;;;;19.77;11.63;;;2.00;99.90;;;;;;4898838;29;20032;-69
2022/12/09 09:39:32;;;;;;;20.37;12.10;;;2.10;99.90;;;;;;4898884;29;20028;-70
2022/12/09 09:42:03;;;;;;;20.27;12.03;;;2.00;99.90;;;;;;4897386;29;20041;-68
2022/12/09 09:44:43;;;;;;;23.05;12.32;;;2.00;99.90;;;;;;4898726;29;20036;-68
2022/12/09 09:47:17;;;;;;;23.50;12.32;;;2.00;99.90;;;;;;4898749;29;20039;-69
2022/12/09 09:49:45;;;;;;;21.65;12.07;;;2.00;99.90;;;;;;4897978;29;20020;-69
2022/12/09 09:52:17;;;;;;;22.38;12.50;;;1.90;99.90;;;;;;4898758;29;20138;-69
2022/12/09 09:54:43;;;;;;;24.80;13.02;;;1.90;99.90;;;;;;4887731;29;20101;-70
2022/12/09 09:57:34;;;;;;;23.63;12.90;;;1.90;99.90;;;;;;4891312;29;20115;-70
2022/12/09 10:00:28;;;;;;;23.13;13.32;;;2.00;99.90;;;;;;4898196;29;20446;-71
2022/12/09 10:03:07;;;;;;;21.60;12.07;;;2.20;99.90;;;;;;4900022;29;20051;-67
2022/12/09 10:05:38;;;;;;;22.70;12.60;;;2.30;99.90;;;;;;4900239;29;20485;-67
2022/12/09 10:08:31;;;;;;;24.75;12.32;;;2.40;99.90;;;;;;4898789;29;20168;-69
2022/12/09 10:11:20;;;;;;;20.08;11.73;;;2.60;99.90;;;;;;4899003;29;20032;-68
2022/12/09 10:14:09;;;;;;;24.88;12.82;;;2.70;99.90;;;;;;4897952;29;20048;-68
2022/12/09 10:16:51;;;;;;;22.77;12.45;;;2.80;99.90;;;;;;4898343;29;20099;-67
2022/12/09 10:19:23;;;;;;;22.70;12.30;;;2.80;99.90;;;;;;4898045;29;20541;-68
2022/12/09 10:21:51;;;;;;;21.30;12.77;;;2.80;99.90;;;;;;4897353;29;20059;-68
2022/12/09 10:24:30;;;;;;;22.02;12.77;;;2.80;99.90;;;;;;4898547;29;20123;-68
2022/12/09 10:27:27;;;;;;;24.65;12.65;;;2.80;99.90;;;;;;4902645;29;20088;-65
2022/12/09 10:30:04;;;;;;;23.00;12.80;;;2.70;99.90;;;;;;4902749;29;20023;-66
2022/12/09 10:32:33;;;;;;;24.88;13.27;;;2.70;99.90;;;;;;4901821;29;20202;-67
2022/12/09 10:34:59;;;;;;;22.70;12.60;;;2.70;99.90;;;;;;4901975;29;20108;-68
2022/12/09 10:37:33;;;;;;;26.17;13.50;;;2.70;99.90;;;;;;4901731;29;20482;-69
2022/12/09 10:40:14;;;;;;;26.95;14.15;;;2.70;99.90;;;;;;4901722;29;20041;-69
2022/12/09 10:45:53;;;;;;;22.30;12.98;;;2.80;99.90;;;;;;4901852;29;20043;-67
2022/12/09 10:48:36;;;;;;;34.15;15.18;;;2.90;99.90;;;;;;4900201;29;20029;-65
2022/12/09 10:51:13;;;;;;;24.30;13.80;;;3.00;99.90;;;;;;4901815;29;20017;-70
2022/12/09 10:53:49;;;;;;;;;;;3.00;99.90;;;;;;4902245;29;20036;-72
2022/12/09 10:56:24;;;;;;;24.70;13.40;;;3.00;99.90;;;;;;4900357;29;19914;-72
2022/12/09 10:59:16;;;;;;;25.05;12.48;;;3.10;99.90;;;;;;4900618;29;20083;-72
2022/12/09 11:02:00;;;;;;;27.05;14.43;;;3.20;99.90;;;;;;4900120;29;20032;-74
2022/12/09 11:04:35;;;;;;;24.52;12.93;;;3.30;99.90;;;;;;4901037;29;20482;-75
2022/12/09 11:07:22;;;;;;;22.52;13.10;;;3.40;99.90;;;;;;4899951;29;20121;-67
2022/12/09 11:09:50;;;;;;;21.02;13.02;;;3.50;99.90;;;;;;4900931;29;20024;-67
2022/12/09 11:12:33;;;;;;;28.15;13.88;;;3.40;99.90;;;;;;4900964;29;20127;-65
2022/12/09 11:15:01;;;;;;;21.90;13.00;;;3.30;99.90;;;;;;4900895;29;20068;-65
2022/12/09 11:17:31;;;;;;;21.20;12.30;;;3.20;99.90;;;;;;4900945;29;20020;-68
2022/12/09 11:20:33;;;;;;;25.05;12.90;;;3.20;99.90;;;;;;4900666;29;20043;-67
2022/12/09 11:23:02;;;;;;;21.48;12.68;;;3.20;99.90;;;;;;4824617;29;20041;-68
2022/12/09 11:25:35;;;;;;;23.58;13.15;;;3.10;99.90;;;;;;4824830;29;20522;-69
2022/12/09 11:28:03;;;;;;;23.38;12.68;;;3.10;99.90;;;;;;4809553;29;20117;-68
2022/12/09 11:30:36;;;;;;;26.38;12.80;;;3.20;99.90;;;;;;4824680;29;20050;-69
2022/12/09 11:33:13;;;;;;;23.15;11.82;;;3.20;99.90;;;;;;4824635;29;20034;-69
2022/12/09 11:35:42;;;;;;;22.67;12.68;;;3.20;99.90;;;;;;4809937;29;20034;-68
2022/12/09 11:38:36;;;;;;;23.70;12.82;;;3.30;99.90;;;;;;4808864;29;20121;-68
2022/12/09 11:41:08;;;;;;;24.85;13.30;;;3.30;99.90;;;;;;4823252;29;20041;-68
2022/12/09 11:43:44;;;;;;;22.23;12.40;;;3.40;99.90;;;;;;4824370;29;20057;-68
2022/12/09 11:46:12;;;;;;;23.00;12.55;;;3.40;99.90;;;;;;4825268;29;20030;-67
2022/12/09 11:48:41;;;;;;;22.58;11.63;;;3.60;99.90;;;;;;4824509;29;20042;-67
2022/12/09 11:51:16;;;;;;;22.63;12.73;;;3.60;99.90;;;;;;4824432;29;20087;-69
2022/12/09 11:53:45;;;;;;;24.52;13.73;;;3.50;99.90;;;;;;4824280;29;20038;-69
2022/12/09 11:56:21;;;;;;;26.13;13.07;;;3.50;99.90;;;;;;4824294;29;20037;-68
2022/12/09 11:58:58;;;;;;;20.80;11.75;;;3.50;99.90;;;;;;4900483;29;20029;-67
2022/12/09 12:01:46;;;;;;;21.48;12.35;;;3.50;99.90;;;;;;4900252;29;20033;-67
2022/12/09 12:04:37;;;;;;;21.65;12.48;;;3.60;99.90;;;;;;4899809;29;20431;-68
2022/12/09 12:07:10;;;;;;;21.75;12.15;;;3.50;99.90;;;;;;4900118;29;20037;-68
2022/12/09 12:10:07;;;;;;;22.88;13.50;;;3.40;99.90;;;;;;4900288;29;20364;-68
2022/12/09 12:12:48;;;;;;;22.20;12.30;;;3.40;99.90;;;;;;4896183;29;20495;-68
2022/12/09 12:15:31;;;;;;;25.52;12.32;;;3.40;99.90;;;;;;4900294;29;20043;-68
2022/12/09 12:17:59;;;;;;;25.67;11.95;;;3.40;99.90;;;;;;4900469;29;20511;-68
2022/12/09 12:20:47;;;;;;;21.88;12.60;;;3.50;99.90;;;;;;4901272;29;20036;-68
2022/12/09 12:23:32;;;;;;;23.17;12.73;;;3.40;99.90;;;;;;4895229;29;20078;-69
2022/12/09 12:26:07;;;;;;;22.67;13.07;;;3.30;99.90;;;;;;4884065;29;20101;-69
2022/12/09 12:28:50;;;;;;;24.20;12.85;;;3.40;99.90;;;;;;4900032;29;20032;-69
2022/12/09 12:31:27;;;;;;;20.65;11.77;;;3.50;99.90;;;;;;4898741;29;20024;-69
2022/12/09 12:34:10;;;;;;;23.15;12.65;;;3.50;99.90;;;;;;4899961;29;20103;-69
2022/12/09 12:36:39;;;;;;;25.45;13.30;;;3.50;99.90;;;;;;4899730;29;20032;-69
2022/12/09 12:39:30;;;;;;;22.95;12.05;;;3.60;99.90;;;;;;4900266;29;20119;-72
2022/12/09 12:42:01;;;;;;;21.38;12.25;;;3.60;99.90;;;;;;4900150;29;20036;-70
2022/12/09 12:47:41;;;;;;;24.63;13.70;;;3.60;99.90;;;;;;4901781;29;20213;-69
2022/12/09 12:50:42;;;;;;;25.05;13.98;;;3.60;99.90;;;;;;4900104;29;20060;-69
2022/12/09 12:53:29;;;;;;;21.80;12.48;;;3.70;99.90;;;;;;4899762;29;20064;-69
2022/12/09 12:56:21;;;;;;;19.73;11.77;;;3.70;99.90;;;;;;4901223;29;20032;-70
2022/12/09 12:58:58;;;;;;;24.08;12.50;;;3.60;99.90;;;;;;4900581;29;20032;-70
2022/12/09 13:01:36;;;;;;;20.15;12.07;;;3.60;99.90;;;;;;4904943;29;20024;-70
2022/12/09 13:04:26;;;;;;;20.52;12.15;;;3.60;99.90;;;;;;4907976;29;20026;-69